עמוד ראשי
METAR-TAF:

METAR-TAF

שדות תעופה :

Galena, אלסקה, ארצות הברית

קו רוחב: 64-44N, קו אורך: 156-56W, גובה: 46מטר

תצפית מזג אוויר נוכחית

הדו"ח נערך לפני 52דקות, בשעה 10:56 UTC
רוח 4קשר עם כיוונים משתנים
טמפרטורת 16 צלסיוס
לחות 68%
לחץ 1013 hPa
ראות: 16.1קילומטר
עננים בינוניים בגובה 10000רגל

METAR: PAGA 221056Z AUTO VRB04KT 10SM BKN100 16/10 A2990 RMK AO2 SLP126 T01560100 TSNO $

זמן: 03:48 (11:48 UTC)

תחזית

הדו"ח נערך לפני 6 שעות ו 10דקות, בשעה 05:38 UTC
תחזית בתוקף מ 22 ב 06 UTC עד 23 ב 06 UTC
רוח 6קשר מכיוון מערב
ראות: 10קילומטר
עננים בינוניים בגובה 10000רגל
מ 22 ב 0800UTC
רוח 3קשר עם כיוונים משתנים
ראות: 10קילומטר
עננים בינוניים בגובה 8000רגל
ממטרים במרחב
מ 23 ב 0000UTC
רוח 7קשר מכיוון צפון/צפון-מערב
ראות: 10קילומטר
עננים בינוניים בגובה 10000רגל

TAF: PAGA 220538Z 2206/2306 26006KT P6SM BKN100 FM220800 VRB03KT P6SM VCSH BKN080 FM230000 33007KT P6SM BKN100

תצפיות ותחזיות מזג אוויר לגבי יותר מ- 4,000 שדות תעופה ברחבי העולם. דוחות METAR ו- TAF.

התחנות הזמינות מסומנות בנקודות צהובות ואדומות על גבי המפה.

העבר את העכבר לנקודה הצבעונית על מנת לראות את שם התחנה.

לאחר מכן, לחץ כדי לראות את תוכן ואת תחזיות מזג האוויר.

כדי לשנות את המפה: לחץ על הכפתורים הירוקים עם הפלוס השחור כדי להתקרב; על הכפתור הירוק עם המקף כדי להתרחק; או בחיצים הירוקים למפות סמוכות.


METAR-TAF: